Time,TemperatureF,DewpointF,PressureIn,WindDirection,WindDirectionDegrees,WindSpeedMPH,WindSpeedGustMPH,Humidity,HourlyPrecipIn,Conditions,Clouds,dailyrainin,SoftwareType,DateUTC
2013-01-29 00:04:00,14.3,12.0,30.11,SW,218,0.0,4.0,89,0.00,,,0.00,weatherlink.com 1.10,2013-01-29 05:04:00,
2013-01-29 00:19:00,14.3,12.0,30.11,SW,222,2.0,5.0,89,0.00,,,0.00,weatherlink.com 1.10,2013-01-29 05:19:00,
2013-01-29 00:34:00,14.3,12.0,30.12,WSW,244,0.0,4.0,89,0.00,,,0.00,weatherlink.com 1.10,2013-01-29 05:34:00,
2013-01-29 00:49:00,13.4,11.0,30.12,East,84,1.0,8.0,89,0.00,,,0.00,weatherlink.com 1.10,2013-01-29 05:49:00,
2013-01-29 01:04:00,13.2,10.0,30.11,WSW,257,2.0,4.0,88,0.00,,,0.00,weatherlink.com 1.10,2013-01-29 06:04:00,
2013-01-29 01:19:00,12.8,10.0,30.11,WSW,257,1.0,2.0,88,0.00,,,0.00,weatherlink.com 1.10,2013-01-29 06:19:00,
2013-01-29 01:34:00,12.7,10.0,30.11,WSW,238,0.0,2.0,90,0.00,,,0.00,weatherlink.com 1.10,2013-01-29 06:34:00,
2013-01-29 01:49:00,12.0,9.0,30.12,WSW,238,0.0,2.0,87,0.00,,,0.00,weatherlink.com 1.10,2013-01-29 06:49:00,
2013-01-29 02:04:00,11.5,9.0,30.12,SW,232,2.0,3.0,88,0.00,,,0.00,weatherlink.com 1.10,2013-01-29 07:04:00,
2013-01-29 02:19:00,11.1,8.0,30.11,SW,232,2.0,3.0,88,0.00,,,0.00,weatherlink.com 1.10,2013-01-29 07:19:00,
2013-01-29 02:35:00,10.5,7.0,30.11,SW,232,0.0,3.0,87,0.00,,,0.00,weatherlink.com 1.10,2013-01-29 07:35:00,
2013-01-29 02:49:00,9.9,7.0,30.11,SW,232,0.0,0.0,86,0.00,,,0.00,weatherlink.com 1.10,2013-01-29 07:49:00,
2013-01-29 03:04:00,9.4,6.0,30.12,SW,232,0.0,0.0,86,0.00,,,0.00,weatherlink.com 1.10,2013-01-29 08:04:00,
2013-01-29 03:20:00,8.9,6.0,30.13,SW,232,0.0,0.0,87,0.00,,,0.00,weatherlink.com 1.10,2013-01-29 08:20:00,
2013-01-29 03:50:00,8.0,5.0,30.13,SW,232,0.0,0.0,87,0.00,,,0.00,weatherlink.com 1.10,2013-01-29 08:50:00,
2013-01-29 04:05:00,7.6,4.0,30.13,SW,232,0.0,0.0,86,0.00,,,0.00,weatherlink.com 1.10,2013-01-29 09:05:00,
2013-01-29 04:50:00,6.4,4.0,30.15,SW,232,0.0,0.0,88,0.00,,,0.00,weatherlink.com 1.10,2013-01-29 09:50:00,
2013-01-29 05:05:00,6.4,4.0,30.16,SW,232,0.0,1.0,89,0.00,,,0.00,weatherlink.com 1.10,2013-01-29 10:05:00,
2013-01-29 05:20:00,6.6,4.0,30.15,SW,232,0.0,0.0,89,0.00,,,0.00,weatherlink.com 1.10,2013-01-29 10:20:00,
2013-01-29 06:05:00,6.6,4.0,30.14,SW,232,0.0,0.0,90,0.00,,,0.00,weatherlink.com 1.10,2013-01-29 11:05:00,
2013-01-29 06:20:00,6.2,3.0,30.15,SW,232,0.0,0.0,87,0.00,,,0.00,weatherlink.com 1.10,2013-01-29 11:20:00,
2013-01-29 06:35:00,6.3,4.0,30.14,SW,232,0.0,0.0,90,0.00,,,0.00,weatherlink.com 1.10,2013-01-29 11:35:00,
2013-01-29 06:51:00,6.0,3.0,30.15,SW,232,0.0,0.0,87,0.00,,,0.00,weatherlink.com 1.10,2013-01-29 11:51:00,
2013-01-29 07:05:00,5.8,3.0,30.16,SW,232,0.0,0.0,88,0.00,,,0.00,weatherlink.com 1.10,2013-01-29 12:05:00,
2013-01-29 07:51:00,9.8,8.0,30.16,SW,232,0.0,0.0,92,0.00,,,0.00,weatherlink.com 1.10,2013-01-29 12:51:00,
2013-01-29 08:06:00,8.0,5.0,30.17,SW,232,0.0,0.0,87,0.00,,,0.00,weatherlink.com 1.10,2013-01-29 13:06:00,
2013-01-29 08:21:00,10.0,7.0,30.17,SW,232,0.0,2.0,88,0.00,,,0.00,weatherlink.com 1.10,2013-01-29 13:21:00,
2013-01-29 08:36:00,10.2,6.0,30.18,SW,232,0.0,0.0,82,0.00,,,0.00,weatherlink.com 1.10,2013-01-29 13:36:00,
2013-01-29 08:51:00,12.9,10.0,30.19,SW,232,0.0,0.0,87,0.00,,,0.00,weatherlink.com 1.10,2013-01-29 13:51:00,
2013-01-29 09:06:00,16.6,12.0,30.20,SW,232,0.0,0.0,82,0.00,,,0.00,weatherlink.com 1.10,2013-01-29 14:06:00,
2013-01-29 09:21:00,19.3,16.0,30.20,SW,232,0.0,1.0,87,0.00,,,0.00,weatherlink.com 1.10,2013-01-29 14:21:00,
2013-01-29 09:36:00,19.2,16.0,30.21,SW,232,0.0,0.0,86,0.00,,,0.00,weatherlink.com 1.10,2013-01-29 14:36:00,
2013-01-29 09:51:00,21.6,18.0,30.22,SW,232,0.0,2.0,85,0.00,,,0.00,weatherlink.com 1.10,2013-01-29 14:51:00,
2013-01-29 10:06:00,22.9,19.0,30.23,SW,232,0.0,0.0,85,0.00,,,0.00,weatherlink.com 1.10,2013-01-29 15:06:00,
2013-01-29 10:21:00,24.3,20.0,30.25,SW,232,0.0,0.0,83,0.00,,,0.00,weatherlink.com 1.10,2013-01-29 15:21:00,
2013-01-29 10:37:00,26.2,21.0,30.24,WSW,239,0.0,5.0,80,0.00,,,0.00,weatherlink.com 1.10,2013-01-29 15:37:00,
2013-01-29 11:07:00,26.2,21.0,30.22,WSW,237,0.0,0.0,81,0.02,,,0.02,weatherlink.com 1.10,2013-01-29 16:07:00,
2013-01-29 11:22:00,26.9,21.0,30.21,WSW,237,0.0,1.0,79,0.03,,,0.03,weatherlink.com 1.10,2013-01-29 16:22:00,
2013-01-29 11:37:00,28.0,22.0,30.21,WSW,237,0.0,1.0,78,0.02,,,0.03,weatherlink.com 1.10,2013-01-29 16:37:00,
2013-01-29 11:52:00,28.9,22.0,30.21,WSW,237,0.0,0.0,76,0.02,,,0.03,weatherlink.com 1.10,2013-01-29 16:52:00,
2013-01-29 12:07:00,29.6,23.0,30.21,NNE,19,2.0,4.0,75,0.01,,,0.03,weatherlink.com 1.10,2013-01-29 17:07:00,
2013-01-29 12:22:00,30.2,24.0,30.21,NW,309,4.0,6.0,78,0.01,,,0.04,weatherlink.com 1.10,2013-01-29 17:22:00,
2013-01-29 12:37:00,29.4,23.0,30.22,WSW,239,5.0,7.0,78,0.01,,,0.04,weatherlink.com 1.10,2013-01-29 17:37:00,
2013-01-29 12:52:00,28.9,23.0,30.20,SW,231,3.0,8.0,80,0.02,,,0.05,weatherlink.com 1.10,2013-01-29 17:52:00,
2013-01-29 13:07:00,30.0,24.0,30.19,West,270,0.0,2.0,77,0.02,,,0.05,weatherlink.com 1.10,2013-01-29 18:07:00,
2013-01-29 13:22:00,30.5,24.0,30.18,WSW,257,2.0,4.0,78,0.01,,,0.05,weatherlink.com 1.10,2013-01-29 18:22:00,
2013-01-29 13:37:00,30.7,25.0,30.17,South,184,5.0,6.0,78,0.01,,,0.05,weatherlink.com 1.10,2013-01-29 18:37:00,
2013-01-29 14:07:00,31.6,25.0,30.15,SSE,165,3.0,7.0,76,0.01,,,0.06,weatherlink.com 1.10,2013-01-29 19:07:00,
2013-01-29 14:22:00,31.1,25.0,30.14,SSW,195,4.0,10.0,77,0.01,,,0.06,weatherlink.com 1.10,2013-01-29 19:22:00,
2013-01-29 14:37:00,30.6,24.0,30.14,South,182,6.0,15.0,77,0.01,,,0.06,weatherlink.com 1.10,2013-01-29 19:37:00,
2013-01-29 14:52:00,30.9,24.0,30.14,SW,219,0.0,11.0,76,0.01,,,0.07,weatherlink.com 1.10,2013-01-29 19:52:00,
2013-01-29 15:08:00,30.8,24.0,30.14,SW,222,3.0,10.0,76,0.01,,,0.07,weatherlink.com 1.10,2013-01-29 20:08:00,
2013-01-29 15:23:00,30.7,24.0,30.14,South,182,6.0,13.0,76,0.01,,,0.07,weatherlink.com 1.10,2013-01-29 20:23:00,
2013-01-29 15:37:00,30.3,24.0,30.14,SW,229,5.0,16.0,76,0.01,,,0.07,weatherlink.com 1.10,2013-01-29 20:37:00,
2013-01-29 15:53:00,29.5,23.0,30.15,WSW,247,5.0,16.0,76,0.00,,,0.07,weatherlink.com 1.10,2013-01-29 20:53:00,
2013-01-29 16:22:00,28.9,23.0,30.13,SSW,199,5.0,18.0,78,0.00,,,0.07,weatherlink.com 1.10,2013-01-29 21:22:00,
2013-01-29 16:37:00,28.8,22.0,30.12,South,186,18.0,19.0,77,0.00,,,0.07,weatherlink.com 1.10,2013-01-29 21:37:00,
2013-01-29 16:52:00,28.6,22.0,30.14,South,173,0.0,13.0,77,0.00,,,0.07,weatherlink.com 1.10,2013-01-29 21:52:00,
2013-01-29 17:07:00,28.2,22.0,30.15,NW,306,6.0,8.0,78,0.00,,,0.07,weatherlink.com 1.10,2013-01-29 22:07:00,
2013-01-29 17:22:00,28.0,22.0,30.13,SW,222,0.0,6.0,79,0.00,,,0.07,weatherlink.com 1.10,2013-01-29 22:22:00,
2013-01-29 17:37:00,27.8,22.0,30.15,SW,233,1.0,7.0,80,0.00,,,0.07,weatherlink.com 1.10,2013-01-29 22:37:00,
2013-01-29 17:53:00,27.7,22.0,30.15,WSW,257,7.0,11.0,80,0.00,,,0.07,weatherlink.com 1.10,2013-01-29 22:53:00,
2013-01-29 18:08:00,27.6,22.0,30.15,SSW,200,7.0,12.0,80,0.00,,,0.07,weatherlink.com 1.10,2013-01-29 23:08:00,
2013-01-29 18:23:00,27.3,22.0,30.14,SW,215,3.0,13.0,81,0.00,,,0.07,weatherlink.com 1.10,2013-01-29 23:23:00,
2013-01-29 18:38:00,27.2,22.0,30.15,SW,225,6.0,9.0,81,0.00,,,0.07,weatherlink.com 1.10,2013-01-29 23:38:00,
2013-01-29 18:53:00,27.2,22.0,30.15,SSW,194,4.0,7.0,82,0.00,,,0.07,weatherlink.com 1.10,2013-01-29 23:53:00,
2013-01-29 19:08:00,26.8,22.0,30.15,SSW,193,1.0,8.0,82,0.00,,,0.07,weatherlink.com 1.10,2013-01-30 00:08:00,
2013-01-29 19:23:00,26.2,22.0,30.14,SSW,197,7.0,8.0,83,0.00,,,0.07,weatherlink.com 1.10,2013-01-30 00:23:00,
2013-01-29 19:38:00,26.2,22.0,30.12,SSW,204,9.0,10.0,83,0.00,,,0.07,weatherlink.com 1.10,2013-01-30 00:38:00,
2013-01-29 19:53:00,26.0,22.0,30.12,South,184,4.0,10.0,84,0.00,,,0.07,weatherlink.com 1.10,2013-01-30 00:53:00,
2013-01-29 20:08:00,25.6,22.0,30.11,South,188,6.0,9.0,85,0.00,,,0.07,weatherlink.com 1.10,2013-01-30 01:08:00,
2013-01-29 20:23:00,26.1,22.0,30.10,SSW,209,4.0,9.0,85,0.00,,,0.07,weatherlink.com 1.10,2013-01-30 01:23:00,
2013-01-29 20:38:00,26.6,22.0,30.09,South,191,7.0,14.0,84,0.00,,,0.07,weatherlink.com 1.10,2013-01-30 01:38:00,
2013-01-29 20:53:00,26.5,23.0,30.10,SSW,204,7.0,10.0,85,0.00,,,0.07,weatherlink.com 1.10,2013-01-30 01:53:00,
2013-01-29 21:08:00,26.6,23.0,30.10,SSW,200,7.0,11.0,85,0.00,,,0.07,weatherlink.com 1.10,2013-01-30 02:08:00,
2013-01-29 21:23:00,26.3,22.0,30.11,SSW,201,6.0,10.0,85,0.00,,,0.07,weatherlink.com 1.10,2013-01-30 02:23:00,
2013-01-29 21:38:00,26.3,23.0,30.09,SSW,200,9.0,11.0,86,0.00,,,0.07,weatherlink.com 1.10,2013-01-30 02:38:00,
2013-01-29 21:53:00,26.4,23.0,30.09,South,178,10.0,12.0,85,0.00,,,0.07,weatherlink.com 1.10,2013-01-30 02:53:00,
2013-01-29 22:08:00,26.6,23.0,30.09,SW,226,8.0,12.0,86,0.00,,,0.07,weatherlink.com 1.10,2013-01-30 03:08:00,
2013-01-29 22:23:00,27.4,24.0,30.09,SSW,200,4.0,12.0,86,0.00,,,0.07,weatherlink.com 1.10,2013-01-30 03:23:00,
2013-01-29 22:38:00,27.5,24.0,30.08,SSW,207,4.0,12.0,85,0.00,,,0.07,weatherlink.com 1.10,2013-01-30 03:38:00,
2013-01-29 22:53:00,27.1,24.0,30.08,SW,223,8.0,13.0,87,0.00,,,0.07,weatherlink.com 1.10,2013-01-30 03:53:00,
2013-01-29 23:08:00,27.2,24.0,30.08,SSW,209,7.0,14.0,89,0.00,,,0.07,weatherlink.com 1.10,2013-01-30 04:08:00,
2013-01-29 23:24:00,27.7,26.0,30.07,SW,225,9.0,15.0,91,0.00,,,0.07,weatherlink.com 1.10,2013-01-30 04:24:00,
2013-01-29 23:39:00,28.2,26.0,30.07,SSW,205,8.0,13.0,91,0.00,,,0.07,weatherlink.com 1.10,2013-01-30 04:39:00,
2013-01-29 23:54:00,28.6,27.0,30.06,SSW,206,9.0,16.0,92,0.00,,,0.07,weatherlink.com 1.10,2013-01-30 04:54:00,